Time;durP1;ratioP1;P1;durP2;ratioP2;P2;SDS_P1;SDS_P2;PMS_P1;PMS_P2;Temp;Humidity;BMP_temperature;BMP_pressure;BME280_temperature;BME280_humidity;BME280_pressure;Samples;Min_cycle;Max_cycle;Signal;HPM_P1;HPM_P2
2021/06/13 00:02:48;;;;;;;19.23;5.18;;;;;;;12.22;84.22;102150.88;6250812;28;20046;-76
2021/06/13 00:05:51;;;;;;;18.52;4.45;;;;;;;12.20;84.33;102158.84;6250703;28;20156;-76
2021/06/13 00:08:51;;;;;;;22.42;4.78;;;;;;;12.27;83.99;102163.00;6250685;28;20385;-76
2021/06/13 00:11:52;;;;;;;14.75;4.57;;;;;;;12.15;84.83;102161.66;6250344;28;20080;-75
2021/06/13 00:14:53;;;;;;;13.82;4.03;;;;;;;12.09;85.23;102171.59;6250459;28;20229;-76
2021/06/13 00:17:55;;;;;;;17.83;4.60;;;;;;;12.07;85.06;102173.41;6250319;28;20102;-76
2021/06/13 00:20:57;;;;;;;16.67;4.85;;;;;;;12.25;83.36;102177.13;6250068;28;20111;-76
2021/06/13 00:23:58;;;;;;;27.67;5.57;;;;;;;12.10;84.30;102168.03;6250767;28;20551;-77
2021/06/13 00:26:59;;;;;;;17.98;4.35;;;;;;;12.04;85.08;102178.81;6250078;28;20132;-76
2021/06/13 00:30:00;;;;;;;25.17;4.85;;;;;;;11.92;85.80;102180.09;6250026;28;20053;-77
2021/06/13 00:33:01;;;;;;;24.80;4.97;;;;;;;11.93;85.90;102169.50;6250310;28;20050;-77
2021/06/13 00:36:04;;;;;;;14.65;4.07;;;;;;;12.04;85.92;102173.53;6250204;28;20188;-76
2021/06/13 00:39:05;;;;;;;20.52;5.07;;;;;;;12.03;85.53;102179.69;6250381;28;20401;-77
2021/06/13 00:42:06;;;;;;;12.43;4.47;;;;;;;12.00;85.96;102182.47;6249596;28;20060;-76
2021/06/13 00:45:08;;;;;;;23.98;5.55;;;;;;;11.94;85.35;102183.53;6249868;28;20053;-78
2021/06/13 00:48:09;;;;;;;14.82;4.28;;;;;;;12.02;86.14;102189.38;6249973;28;20045;-77
2021/06/13 00:51:12;;;;;;;17.33;4.03;;;;;;;11.98;85.63;102194.81;6249586;28;20056;-76
2021/06/13 00:54:13;;;;;;;19.73;4.70;;;;;;;11.85;86.91;102199.66;6250044;28;20049;-76
2021/06/13 00:57:14;;;;;;;15.68;4.90;;;;;;;11.91;85.43;102202.94;6249655;28;20116;-75
2021/06/13 01:00:16;;;;;;;13.98;4.45;;;;;;;11.79;86.54;102197.22;6249268;28;20489;-76
2021/06/13 01:03:17;;;;;;;18.25;5.07;;;;;;;11.76;87.73;102206.06;6249553;28;20057;-77
2021/06/13 01:06:25;;;;;;;15.52;4.43;;;;;;;11.79;87.51;102208.59;6249386;28;20046;-76
2021/06/13 01:09:29;;;;;;;20.08;4.88;;;;;;;11.86;87.28;102202.25;6249601;28;20053;-75
2021/06/13 01:12:37;;;;;;;16.45;3.90;;;;;;;11.81;87.53;102204.16;6249802;28;20049;-76
2021/06/13 01:15:43;;;;;;;19.88;4.75;;;;;;;11.90;86.55;102205.66;6249502;28;20488;-77
2021/06/13 01:18:48;;;;;;;17.65;4.93;;;;;;;11.78;87.83;102206.03;6249225;28;20056;-77
2021/06/13 01:22:00;;;;;;;20.23;5.03;;;;;;;11.76;88.35;102213.13;6249047;28;20045;-77
2021/06/13 01:25:09;;;;;;;18.67;5.18;;;;;;;11.68;88.43;102219.53;6248882;28;20413;-75
2021/06/13 01:28:29;;;;;;;;;;;;;;;11.71;87.67;102223.81;6249535;28;20076;-77
2021/06/13 01:31:34;;;;;;;18.15;4.38;;;;;;;11.59;89.35;102218.97;6248312;28;20383;-75
2021/06/13 01:34:38;;;;;;;14.55;4.50;;;;;;;11.62;89.79;102226.75;6248820;28;20489;-75
2021/06/13 01:37:42;;;;;;;17.35;4.90;;;;;;;11.74;88.97;102228.13;6248737;28;20068;-76
2021/06/13 01:40:45;;;;;;;20.52;4.95;;;;;;;11.67;87.80;102222.19;6248488;28;20088;-76
2021/06/13 01:43:47;;;;;;;10.13;4.13;;;;;;;11.61;88.21;102222.41;6248484;28;20057;-75
2021/06/13 01:46:50;;;;;;;17.98;4.53;;;;;;;11.50;88.54;102221.94;6248280;28;20045;-76
2021/06/13 01:49:53;;;;;;;19.10;4.88;;;;;;;11.36;90.19;102214.50;6248316;28;20140;-77
2021/06/13 01:52:57;;;;;;;17.33;4.65;;;;;;;11.60;89.46;102213.66;6248652;28;20049;-75
2021/06/13 01:55:59;;;;;;;20.95;4.65;;;;;;;11.45;89.61;102214.19;6247476;28;20398;-76
2021/06/13 01:59:00;;;;;;;15.73;4.55;;;;;;;11.51;88.88;102213.97;6247963;28;20049;-76
2021/06/13 02:02:04;;;;;;;17.83;4.00;;;;;;;11.46;90.62;102215.91;6247888;28;20041;-76
2021/06/13 02:05:06;;;;;;;14.70;4.90;;;;;;;11.51;89.81;102218.38;6248032;28;20195;-76
2021/06/13 02:08:09;;;;;;;15.60;4.93;;;;;;;11.47;89.74;102219.38;6248125;28;20049;-75
2021/06/13 02:11:12;;;;;;;14.18;4.22;;;;;;;11.40;89.48;102221.38;6247563;28;20045;-76
2021/06/13 02:14:14;;;;;;;16.30;5.18;;;;;;;11.41;89.06;102220.47;6247781;28;20064;-76
2021/06/13 02:17:17;;;;;;;19.60;5.35;;;;;;;11.34;89.35;102219.78;6248614;28;20497;-77
2021/06/13 02:20:20;;;;;;;15.00;4.25;;;;;;;11.37;89.27;102216.22;6247670;28;20103;-76
2021/06/13 02:23:24;;;;;;;14.50;4.70;;;;;;;11.25;89.57;102227.97;6247341;28;20107;-77
2021/06/13 02:26:27;;;;;;;14.57;4.60;;;;;;;11.27;90.89;102223.53;6247638;28;20136;-76
2021/06/13 02:29:30;;;;;;;14.88;4.78;;;;;;;11.31;90.59;102230.44;6247671;28;20056;-75
2021/06/13 02:32:35;;;;;;;18.70;4.85;;;;;;;11.28;90.13;102229.66;6246762;28;20045;-76
2021/06/13 02:35:39;;;;;;;21.27;6.25;;;;;;;11.16;90.88;102244.91;6245907;28;20050;-76
2021/06/13 02:38:40;;;;;;;15.55;5.05;;;;;;;11.08;92.06;102246.97;6245021;28;20049;-76
2021/06/13 02:41:41;;;;;;;20.98;5.63;;;;;;;11.02;91.64;102247.13;6245293;28;20041;-76
2021/06/13 02:44:42;;;;;;;14.23;5.05;;;;;;;11.02;92.10;102254.16;6247047;28;20060;-77
2021/06/13 02:47:44;;;;;;;24.88;6.28;;;;;;;11.00;92.42;102248.09;6247224;28;20045;-75
2021/06/13 02:50:47;;;;;;;17.33;5.15;;;;;;;10.97;91.61;102253.44;6246986;28;20042;-77
2021/06/13 02:53:54;;;;;;;18.42;5.55;;;;;;;10.89;92.31;102259.78;6247117;28;20144;-77
2021/06/13 02:56:57;;;;;;;21.42;5.85;;;;;;;11.05;92.62;102262.81;6246778;28;20049;-75
2021/06/13 03:00:01;;;;;;;19.20;5.45;;;;;;;11.04;92.58;102261.13;6246665;28;20053;-76
2021/06/13 03:03:04;;;;;;;15.93;5.25;;;;;;;10.96;92.39;102264.88;6246967;28;20085;-78
2021/06/13 03:06:09;;;;;;;17.00;5.20;;;;;;;10.96;92.65;102271.00;6247139;28;20057;-78
2021/06/13 03:09:10;;;;;;;22.73;6.13;;;;;;;10.90;93.32;102274.69;6245909;28;20046;-77
2021/06/13 03:12:12;;;;;;;26.60;5.53;;;;;;;10.92;92.32;102267.59;6246581;28;20053;-77
2021/06/13 03:15:14;;;;;;;14.98;5.03;;;;;;;10.80;94.22;102280.25;6246840;28;20513;-78
2021/06/13 03:18:18;;;;;;;20.85;6.13;;;;;;;10.79;93.10;102281.16;6246452;28;20532;-78
2021/06/13 03:21:19;;;;;;;21.20;5.93;;;;;;;10.93;92.54;102281.59;6246382;28;20050;-77
2021/06/13 03:24:22;;;;;;;21.42;5.35;;;;;;;10.84;91.96;102279.25;6246873;28;20050;-76
2021/06/13 03:27:23;;;;;;;20.75;5.35;;;;;;;10.95;93.16;102292.09;6246834;28;20049;-76
2021/06/13 03:30:25;;;;;;;19.38;6.47;;;;;;;10.76;92.77;102300.50;6246726;28;20045;-75
2021/06/13 03:33:28;;;;;;;18.33;5.97;;;;;;;10.71;93.79;102296.28;6246914;28;20076;-75
2021/06/13 03:36:31;;;;;;;14.20;5.43;;;;;;;10.78;94.64;102298.72;6246558;28;20500;-78
2021/06/13 03:39:35;;;;;;;15.65;6.00;;;;;;;10.74;94.46;102298.84;6246750;28;20057;-76
2021/06/13 03:42:36;;;;;;;21.90;6.43;;;;;;;10.79;93.43;102296.94;6246116;28;20080;-76
2021/06/13 03:45:38;;;;;;;23.80;6.97;;;;;;;10.75;94.74;102309.31;6246290;28;20045;-76
2021/06/13 03:48:42;;;;;;;16.02;5.60;;;;;;;10.76;93.65;102311.03;6246193;28;20060;-79
2021/06/13 03:51:44;;;;;;;17.65;6.82;;;;;;;10.78;94.10;102303.97;6246477;28;20049;-77
2021/06/13 03:54:46;;;;;;;17.42;5.35;;;;;;;10.78;94.08;102316.25;6246365;28;20056;-78
2021/06/13 03:57:50;;;;;;;22.65;5.75;;;;;;;10.81;93.57;102314.41;6289495;22;20045;-74
2021/06/13 04:00:54;;;;;;;27.92;5.82;;;;;;;10.74;95.33;102309.38;6270697;28;20599;-74
2021/06/13 04:03:57;;;;;;;20.40;5.88;;;;;;;10.85;93.93;102310.75;6269195;28;20060;-74
2021/06/13 04:07:01;;;;;;;16.05;5.75;;;;;;;10.91;93.39;102318.50;6246069;28;20515;-76
2021/06/13 04:10:02;;;;;;;15.95;5.95;;;;;;;10.95;92.99;102324.53;6245504;28;20508;-75
2021/06/13 04:13:04;;;;;;;20.35;5.63;;;;;;;10.91;93.57;102326.38;6246135;28;20060;-75
2021/06/13 04:16:07;;;;;;;26.17;6.10;;;;;;;11.00;91.91;102329.66;6245673;28;20054;-75
2021/06/13 04:19:10;;;;;;;16.50;5.78;;;;;;;10.83;93.69;102331.00;6247149;28;20467;-75
2021/06/13 04:22:13;;;;;;;21.17;6.38;;;;;;;10.99;93.05;102330.53;6250149;28;20049;-75
2021/06/13 04:25:18;;;;;;;15.52;6.07;;;;;;;10.95;93.60;102336.81;6250061;28;20049;-75
2021/06/13 04:28:20;;;;;;;18.27;5.55;;;;;;;10.93;93.32;102340.34;6250283;28;20076;-74
2021/06/13 04:31:22;;;;;;;20.83;5.93;;;;;;;10.97;93.00;102338.47;6249729;28;20405;-75
2021/06/13 04:34:25;;;;;;;19.67;6.05;;;;;;;11.22;93.08;102330.72;6250105;28;20050;-74
2021/06/13 04:37:27;;;;;;;15.90;6.10;;;;;;;11.08;91.65;102336.41;6249743;28;20416;-74
2021/06/13 04:40:29;;;;;;;17.00;5.55;;;;;;;11.11;90.99;102335.44;6250465;28;20381;-75
2021/06/13 04:43:30;;;;;;;15.98;5.75;;;;;;;11.11;92.13;102332.81;6249762;28;20057;-75
2021/06/13 04:46:32;;;;;;;19.88;4.93;;;;;;;11.16;90.21;102333.53;6249873;28;20519;-75
2021/06/13 04:49:35;;;;;;;15.48;4.82;;;;;;;11.34;89.28;102340.84;6249678;28;20416;-75
2021/06/13 04:52:39;;;;;;;13.82;5.03;;;;;;;11.26;90.61;102347.25;6249704;28;20052;-75
2021/06/13 04:55:45;;;;;;;18.63;5.90;;;;;;;11.47;89.61;102351.88;6249290;28;20131;-75
2021/06/13 04:58:46;;;;;;;19.98;5.32;;;;;;;11.46;89.18;102350.16;6249646;28;20060;-74
2021/06/13 05:01:47;;;;;;;17.58;5.05;;;;;;;11.37;89.20;102355.72;6249131;28;20045;-75
2021/06/13 05:04:50;;;;;;;14.95;5.22;;;;;;;11.40;89.32;102353.84;6249579;28;20575;-75
2021/06/13 05:07:51;;;;;;;20.35;6.20;;;;;;;11.51;89.34;102358.75;6249456;28;20068;-75
2021/06/13 05:10:54;;;;;;;16.25;5.22;;;;;;;11.61;89.16;102348.81;6248686;28;20670;-75
2021/06/13 05:13:55;;;;;;;20.55;5.35;;;;;;;11.68;88.20;102347.72;6249292;28;20049;-75
2021/06/13 05:16:56;;;;;;;18.02;5.28;;;;;;;11.79;88.47;102352.63;6248962;28;20056;-75
2021/06/13 05:19:59;;;;;;;20.27;5.90;;;;;;;11.97;87.90;102352.03;6249005;28;20057;-75
2021/06/13 05:23:02;;;;;;;16.77;5.30;;;;;;;11.86;88.23;102349.78;6248816;28;20045;-75
2021/06/13 05:26:03;;;;;;;17.90;5.10;;;;;;;11.99;88.70;102363.41;6249091;28;20049;-74
2021/06/13 05:29:06;;;;;;;20.75;5.93;;;;;;;12.06;86.36;102362.28;6248556;28;20049;-75
2021/06/13 05:32:07;;;;;;;24.15;6.15;;;;;;;12.18;86.73;102369.78;6247585;28;20132;-74
2021/06/13 05:35:11;;;;;;;20.70;5.35;;;;;;;12.09;87.38;102364.81;6248594;28;20053;-75
2021/06/13 05:38:13;;;;;;;21.25;5.93;;;;;;;12.13;87.20;102363.81;6248414;28;20056;-74
2021/06/13 05:41:15;;;;;;;17.38;4.85;;;;;;;12.36;86.99;102364.78;6248404;28;20042;-75
2021/06/13 05:44:16;;;;;;;18.45;5.65;;;;;;;12.56;84.73;102372.84;6248197;28;20053;-73
2021/06/13 05:47:17;;;;;;;15.45;4.63;;;;;;;12.44;85.53;102376.78;6248428;28;20046;-74
2021/06/13 05:50:21;;;;;;;20.60;5.15;;;;;;;12.56;85.81;102377.25;6247866;28;20054;-74
2021/06/13 05:53:22;;;;;;;14.77;4.93;;;;;;;12.57;84.67;102382.47;6248448;28;20045;-74
2021/06/13 05:56:24;;;;;;;19.10;5.38;;;;;;;12.56;85.46;102383.38;6247852;28;20049;-74
2021/06/13 05:59:25;;;;;;;15.80;5.10;;;;;;;12.78;83.65;102375.56;6248186;28;20042;-74
2021/06/13 06:02:27;;;;;;;21.80;5.22;;;;;;;12.82;83.48;102385.09;6247545;28;20416;-73
2021/06/13 06:05:30;;;;;;;21.35;5.57;;;;;;;12.77;82.36;102384.41;6247795;28;20421;-74
2021/06/13 06:08:32;;;;;;;17.40;5.53;;;;;;;12.70;83.79;102385.53;6265610;28;20490;-75
2021/06/13 06:11:35;;;;;;;12.55;4.47;;;;;;;12.88;83.01;102382.22;6272136;28;20048;-75
2021/06/13 06:14:36;;;;;;;23.55;6.40;;;;;;;12.81;84.62;102380.75;6272523;28;20048;-75
2021/06/13 06:17:38;;;;;;;18.08;4.88;;;;;;;12.82;84.77;102390.38;6272039;28;20056;-75
2021/06/13 06:20:40;;;;;;;26.60;5.18;;;;;;;12.92;83.79;102382.97;6272095;28;20053;-75
2021/06/13 06:23:42;;;;;;;14.52;4.60;;;;;;;13.30;80.32;102394.75;6272094;28;20056;-74
2021/06/13 06:26:43;;;;;;;13.80;4.60;;;;;;;13.18;79.69;102397.84;6272147;28;20058;-75
2021/06/13 06:29:44;;;;;;;16.38;4.47;;;;;;;13.29;79.40;102403.59;6272220;28;20056;-75
2021/06/13 06:32:46;;;;;;;16.30;4.22;;;;;;;13.58;77.50;102405.13;6271695;28;20412;-74
2021/06/13 06:35:48;;;;;;;20.95;5.05;;;;;;;13.43;78.71;102401.28;6271921;28;20519;-75
2021/06/13 06:38:50;;;;;;;11.13;3.60;;;;;;;13.56;77.42;102399.03;6270927;28;20056;-74
2021/06/13 06:41:51;;;;;;;13.02;4.00;;;;;;;13.49;77.63;102408.13;6270319;28;20051;-74
2021/06/13 06:44:53;;;;;;;24.58;4.43;;;;;;;13.75;75.09;102415.03;6270613;28;20053;-75
2021/06/13 06:47:55;;;;;;;15.60;4.18;;;;;;;13.73;76.13;102416.88;6270495;28;20081;-75
2021/06/13 06:50:57;;;;;;;14.50;3.55;;;;;;;13.80;74.56;102412.19;6270179;28;20049;-75
2021/06/13 06:53:59;;;;;;;15.43;4.22;;;;;;;13.75;76.41;102419.44;6271465;28;20049;-75
2021/06/13 06:57:00;;;;;;;11.30;3.70;;;;;;;13.87;75.28;102419.81;6271336;28;20045;-75
2021/06/13 07:00:02;;;;;;;16.48;4.00;;;;;;;14.05;75.46;102423.50;6271762;28;20052;-75
2021/06/13 07:03:10;;;;;;;13.30;4.07;;;;;;;14.06;73.59;102424.34;6271168;28;20049;-75
2021/06/13 07:06:13;;;;;;;14.20;3.30;;;;;;;14.04;71.84;102426.22;6271526;28;20049;-76
2021/06/13 07:09:14;;;;;;;12.68;4.30;;;;;;;14.06;71.61;102427.84;6271302;28;20511;-76
2021/06/13 07:12:15;;;;;;;14.90;4.30;;;;;;;14.12;72.27;102430.25;6271298;28;20041;-76
2021/06/13 07:15:18;;;;;;;10.82;3.83;;;;;;;14.25;68.76;102432.38;6271109;28;20072;-77
2021/06/13 07:18:20;;;;;;;16.58;3.88;;;;;;;14.35;67.21;102421.38;6271366;28;20060;-76
2021/06/13 07:21:22;;;;;;;10.68;3.13;;;;;;;14.38;67.12;102423.88;6271296;28;20045;-75
2021/06/13 07:24:24;;;;;;;10.00;2.88;;;;;;;14.50;63.56;102419.88;6271014;28;20053;-77
2021/06/13 07:27:26;;;;;;;10.02;3.13;;;;;;;14.33;64.21;102427.63;6271218;28;20075;-76
2021/06/13 07:30:28;;;;;;;11.38;2.72;;;;;;;14.39;62.51;102430.88;6270797;28;20057;-76
2021/06/13 07:33:30;;;;;;;13.50;3.80;;;;;;;14.57;62.74;102434.56;6270651;28;20052;-75
2021/06/13 07:36:35;;;;;;;8.20;2.63;;;;;;;14.62;62.39;102444.94;6269278;28;20048;-76
2021/06/13 07:39:37;;;;;;;10.35;3.10;;;;;;;14.73;60.77;102449.78;6269777;28;20060;-76
2021/06/13 07:42:38;;;;;;;11.80;3.22;;;;;;;14.73;63.25;102441.84;6266439;28;20056;-75
2021/06/13 07:45:40;;;;;;;15.27;3.38;;;;;;;14.66;63.24;102446.53;6269457;28;20049;-76
2021/06/13 07:48:41;;;;;;;10.10;3.08;;;;;;;14.92;60.12;102459.50;6269361;28;20045;-77
2021/06/13 07:51:44;;;;;;;8.85;2.97;;;;;;;14.94;59.24;102459.41;6267835;28;20037;-76
2021/06/13 07:54:45;;;;;;;10.95;3.20;;;;;;;14.84;60.79;102450.16;6271723;28;20420;-77
2021/06/13 07:57:47;;;;;;;5.57;2.60;;;;;;;14.89;60.47;102454.31;6275698;28;20056;-76
2021/06/13 08:00:50;;;;;;;11.25;3.30;;;;;;;15.04;58.01;102455.44;6274784;28;20056;-76
2021/06/13 08:03:53;;;;;;;9.88;2.85;;;;;;;14.83;59.44;102453.75;6275433;28;20045;-74
2021/06/13 08:06:56;;;;;;;10.68;3.30;;;;;;;15.22;58.98;102454.63;6278744;28;20155;-75
2021/06/13 08:09:57;;;;;;;13.32;3.38;;;;;;;15.23;56.78;102452.81;6299887;28;20388;-76
2021/06/13 08:12:59;;;;;;;11.48;2.75;;;;;;;15.02;59.33;102462.59;6299498;28;20048;-77
2021/06/13 08:16:00;;;;;;;9.05;3.30;;;;;;;15.05;61.00;102467.75;6299858;28;20051;-74
2021/06/13 08:19:01;;;;;;;11.10;3.05;;;;;;;15.31;58.76;102463.94;6300275;28;20060;-76
2021/06/13 08:22:04;;;;;;;10.95;3.08;;;;;;;15.27;59.31;102459.72;6299136;28;20048;-76
2021/06/13 08:25:06;;;;;;;11.68;3.70;;;;;;;15.32;58.52;102464.78;6287226;28;20052;-76
2021/06/13 08:28:08;;;;;;;4.03;2.17;;;;;;;15.48;56.40;102474.59;6274726;28;20071;-76
2021/06/13 08:31:09;;;;;;;12.75;3.80;;;;;;;15.37;56.14;102473.38;6274272;28;20049;-75
2021/06/13 08:34:10;;;;;;;10.60;2.80;;;;;;;15.37;60.08;102490.13;6274869;28;20506;-74
2021/06/13 08:37:13;;;;;;;7.63;2.60;;;;;;;15.45;57.91;102485.34;6274521;28;20060;-74
2021/06/13 08:40:15;;;;;;;8.55;2.92;;;;;;;15.62;55.94;102487.19;6272766;28;20055;-74
2021/06/13 08:43:16;;;;;;;12.55;3.38;;;;;;;15.39;58.61;102479.47;6274358;28;20488;-74
2021/06/13 08:46:18;;;;;;;11.43;2.97;;;;;;;15.58;58.17;102484.75;6274124;28;20052;-74
2021/06/13 08:49:21;;;;;;;8.68;3.03;;;;;;;15.64;59.27;102489.84;6271763;28;20048;-74
2021/06/13 08:52:24;;;;;;;7.50;2.92;;;;;;;15.75;58.53;102484.00;6273308;28;20048;-74
2021/06/13 08:55:26;;;;;;;11.70;3.55;;;;;;;16.01;56.54;102478.31;6274010;28;20049;-74
2021/06/13 08:58:28;;;;;;;10.13;2.97;;;;;;;15.96;57.55;102473.25;6274190;28;20451;-74
2021/06/13 09:01:29;;;;;;;8.63;3.00;;;;;;;16.08;56.48;102482.41;6273671;28;20057;-74
2021/06/13 09:04:30;;;;;;;8.45;2.95;;;;;;;16.15;54.75;102486.47;6274017;28;20053;-73
2021/06/13 09:07:34;;;;;;;10.07;3.42;;;;;;;15.86;55.93;102487.88;6273533;28;20512;-74
2021/06/13 09:10:37;;;;;;;11.00;2.92;;;;;;;15.78;56.70;102478.56;6273880;28;20049;-74
2021/06/13 09:13:43;;;;;;;12.60;3.22;;;;;;;16.06;57.15;102491.38;6273579;28;20037;-74
2021/06/13 09:16:47;;;;;;;8.20;2.70;;;;;;;16.10;58.25;102487.63;6273904;28;20049;-74
2021/06/13 09:20:13;;;;;;;9.73;3.20;;;;;;;16.22;56.37;102482.59;6273504;28;20057;-74
2021/06/13 09:23:18;;;;;;;8.15;3.05;;;;;;;16.34;57.80;102490.88;6271896;28;20496;-73
2021/06/13 09:26:20;;;;;;;10.70;3.28;;;;;;;16.34;55.72;102497.03;6271888;28;20139;-74
2021/06/13 09:29:22;;;;;;;17.05;3.80;;;;;;;16.18;55.49;102486.31;6272012;28;20056;-74
2021/06/13 09:32:24;;;;;;;10.43;3.08;;;;;;;16.13;58.87;102493.66;6268752;28;20045;-73
2021/06/13 09:35:28;;;;;;;11.57;3.20;;;;;;;16.44;57.53;102503.63;6272246;28;20041;-70
2021/06/13 09:38:33;;;;;;;11.98;3.40;;;;;;;16.56;56.06;102502.13;6281955;28;20052;-74
2021/06/13 09:41:36;;;;;;;12.10;3.05;;;;;;;16.39;56.59;102510.06;6286173;28;20055;-71
2021/06/13 09:44:38;;;;;;;7.90;3.28;;;;;;;16.17;59.05;102495.22;6294589;28;20044;-71
2021/06/13 09:47:40;;;;;;;8.40;2.83;;;;;;;16.53;57.73;102507.59;6272818;28;20412;-72
2021/06/13 09:50:44;;;;;;;11.15;3.35;;;;;;;16.66;54.68;102484.78;6272466;28;20048;-71
2021/06/13 09:53:49;;;;;;;10.27;3.55;;;;;;;16.48;57.31;102499.00;6280819;28;20051;-70
2021/06/13 09:56:53;;;;;;;9.57;2.95;;;;;;;16.85;55.66;102499.81;6297770;28;20052;-71
2021/06/13 09:59:54;;;;;;;13.68;3.60;;;;;;;16.92;56.60;102496.75;6297387;28;20135;-71
2021/06/13 10:02:55;;;;;;;19.85;3.58;;;;;;;16.94;55.35;102494.00;6297149;28;20040;-71
2021/06/13 10:05:58;;;;;;;8.55;3.60;;;;;;;16.93;56.45;102498.47;6297245;28;20063;-70
2021/06/13 10:09:03;;;;;;;8.27;3.35;;;;;;;16.92;55.27;102491.44;6297473;28;20052;-71
2021/06/13 10:12:06;;;;;;;9.98;3.20;;;;;;;17.06;55.10;102500.50;6277805;28;20555;-70
2021/06/13 10:15:15;;;;;;;13.35;4.18;;;;;;;17.19;53.36;102498.91;6272559;28;20049;-71
2021/06/13 10:18:16;;;;;;;9.85;3.58;;;;;;;17.23;53.22;102485.38;6271727;28;20045;-71
2021/06/13 10:21:18;;;;;;;15.55;3.50;;;;;;;17.25;53.62;102485.28;6271764;28;20045;-71
2021/06/13 10:24:22;;;;;;;8.75;3.03;;;;;;;17.38;53.97;102488.16;6272197;28;20045;-71
2021/06/13 10:27:24;;;;;;;13.20;3.35;;;;;;;17.37;54.69;102479.31;6272209;28;20044;-72
2021/06/13 10:30:26;;;;;;;13.35;3.60;;;;;;;17.53;53.29;102479.31;6216734;22;20050;-73
2021/06/13 10:33:28;;;;;;;8.38;2.97;;;;;;;17.60;54.79;102480.72;6175604;28;20066;-74
2021/06/13 10:36:32;;;;;;;13.30;3.28;;;;;;;17.68;52.26;102482.97;6172840;28;20498;-74
2021/06/13 10:39:36;;;;;;;7.93;2.92;;;;;;;17.52;53.63;102480.28;6153376;28;20069;-74
2021/06/13 10:42:38;;;;;;;13.27;3.75;;;;;;;17.70;52.27;102473.94;6172216;28;20050;-74
2021/06/13 10:45:40;;;;;;;11.77;3.05;;;;;;;17.49;54.25;102483.13;6172547;28;20494;-74
2021/06/13 10:48:46;;;;;;;8.57;2.80;;;;;;;17.75;54.14;102485.19;6172313;28;20057;-74
2021/06/13 10:51:47;;;;;;;8.10;3.10;;;;;;;17.85;55.67;102482.03;6171975;28;20470;-74
2021/06/13 10:54:58;;;;;;;8.35;2.85;;;;;;;18.03;53.80;102470.34;6172371;28;20414;-77
2021/06/13 10:58:00;;;;;;;14.50;5.38;;;;;;;18.35;51.65;102481.81;6171044;28;20502;-75
2021/06/13 11:01:23;;;;;;;12.05;3.20;;;;;;;18.40;51.14;102481.56;6171902;28;20054;-74
2021/06/13 11:04:43;;;;;;;11.05;3.38;;;;;;;18.12;52.25;102488.47;6171650;28;20065;-74
2021/06/13 11:07:58;;;;;;;9.45;3.67;;;;;;;18.24;52.05;102487.75;6172274;28;20058;-75
2021/06/13 11:11:01;;;;;;;10.27;3.28;;;;;;;18.49;51.72;102483.66;6172962;28;20055;-74
2021/06/13 11:14:25;;;;;;;12.20;3.17;;;;;;;18.51;50.38;102487.94;6172505;28;20050;-75
2021/06/13 11:17:52;;;;;;;11.80;3.63;;;;;;;18.62;50.80;102487.31;6173144;28;20078;-76
2021/06/13 11:21:04;;;;;;;9.35;3.08;;;;;;;18.96;52.18;102482.66;6172720;28;20054;-76
2021/06/13 11:24:05;;;;;;;10.65;3.30;;;;;;;18.96;52.02;102475.50;6184146;28;20126;-75
2021/06/13 11:27:08;;;;;;;10.20;3.22;;;;;;;18.70;53.00;102473.56;6197891;28;20493;-76
2021/06/13 11:30:28;;;;;;;7.10;2.70;;;;;;;18.85;50.92;102474.44;6189632;28;20059;-77
2021/06/13 11:33:35;;;;;;;9.10;3.22;;;;;;;18.57;53.18;102488.53;6202529;28;20053;-78
2021/06/13 11:36:39;;;;;;;9.63;3.40;;;;;;;18.61;51.48;102484.72;6202711;28;20050;-75
2021/06/13 11:39:54;;;;;;;9.60;3.03;;;;;;;19.17;48.86;102480.47;6202512;28;20425;-75
2021/06/13 11:43:14;;;;;;;6.03;2.85;;;;;;;19.86;48.58;102481.47;6194416;28;20061;-75
2021/06/13 11:46:30;;;;;;;8.13;2.95;;;;;;;19.50;48.39;102472.16;6188597;28;20050;-77
2021/06/13 11:49:45;;;;;;;13.07;3.55;;;;;;;19.05;50.18;102468.75;6199729;28;20050;-76
2021/06/13 11:53:03;;;;;;;11.23;3.17;;;;;;;19.31;53.81;102471.63;6177279;28;20521;-76
2021/06/13 11:56:04;;;;;;;9.45;3.15;;;;;;;19.70;47.39;102477.09;6175660;28;20121;-77
2021/06/13 11:59:10;;;;;;;8.50;3.00;;;;;;;20.04;49.25;102480.25;6178596;28;20156;-77
2021/06/13 12:02:13;;;;;;;7.40;3.45;;;;;;;20.27;47.56;102473.41;6178603;28;20055;-79
2021/06/13 12:05:15;;;;;;;8.13;3.17;;;;;;;20.76;45.61;102465.63;6179966;28;20051;-78
2021/06/13 12:08:16;;;;;;;10.98;3.17;;;;;;;21.19;44.96;102473.28;6180687;28;20062;-79
2021/06/13 12:11:32;;;;;;;11.68;3.42;;;;;;;21.33;47.64;102456.28;6179266;28;20061;-78
2021/06/13 12:14:37;;;;;;;7.25;3.15;;;;;;;21.50;44.28;102447.06;6178633;28;20410;-79
2021/06/13 12:17:38;;;;;;;12.73;2.70;;;;;;;21.50;44.10;102455.94;6178357;28;20099;-76
2021/06/13 12:20:40;;;;;;;6.88;2.75;;;;;;;21.69;44.82;102466.16;6178726;28;20058;-78
2021/06/13 12:23:51;;;;;;;8.40;3.47;;;;;;;21.53;44.71;102453.06;6177867;28;20396;-79
2021/06/13 12:30:16;;;;;;;11.43;3.10;;;;;;;21.83;43.70;102457.09;6178161;28;20082;-77
2021/06/13 12:33:17;;;;;;;5.47;2.50;;;;;;;21.88;43.07;102438.88;6186580;28;20518;-77
2021/06/13 12:36:18;;;;;;;7.45;2.47;;;;;;;21.72;42.85;102449.88;6193748;28;20062;-79
2021/06/13 12:39:28;;;;;;;8.10;2.42;;;;;;;22.06;43.75;102441.16;6192222;28;20394;-78
2021/06/13 12:42:30;;;;;;;7.22;3.13;;;;;;;21.96;41.94;102446.34;6193817;28;20038;-73
2021/06/13 12:45:34;;;;;;;6.93;2.72;;;;;;;20.92;45.32;102446.69;6195071;28;20054;-78
2021/06/13 12:48:35;;;;;;;9.25;2.78;;;;;;;21.61;46.66;102447.13;6189511;28;20069;-74
2021/06/13 12:51:41;;;;;;;9.55;2.78;;;;;;;22.29;42.41;102433.13;6177176;28;20529;-78
2021/06/13 12:54:45;;;;;;;10.57;2.90;;;;;;;22.23;41.42;102432.75;6189914;28;20054;-77
2021/06/13 12:57:47;;;;;;;10.27;3.45;;;;;;;22.28;43.59;102443.97;6200848;28;20054;-75
2021/06/13 13:00:50;;;;;;;11.18;3.20;;;;;;;21.91;44.33;102437.81;6183127;28;20061;-77
2021/06/13 13:03:52;;;;;;;9.43;3.03;;;;;;;21.83;42.29;102443.72;6176772;28;20047;-74
2021/06/13 13:06:53;;;;;;;6.05;2.88;;;;;;;22.06;42.96;102427.78;6176849;28;20051;-75
2021/06/13 13:10:02;;;;;;;9.10;3.03;;;;;;;22.68;40.96;102423.00;6176803;28;20062;-76
2021/06/13 13:13:06;;;;;;;9.63;2.95;;;;;;;22.44;42.22;102427.59;6183854;28;20050;-78
2021/06/13 13:16:21;;;;;;;8.38;2.92;;;;;;;22.64;41.00;102429.56;6192901;28;20490;-74
2021/06/13 13:19:30;;;;;;;6.40;2.70;;;;;;;22.55;40.11;102422.22;6200376;28;20042;-74
2021/06/13 13:22:42;;;;;;;6.32;2.78;;;;;;;22.82;41.84;102427.28;6200012;28;20054;-74
2021/06/13 13:25:46;;;;;;;6.90;2.80;;;;;;;22.96;40.20;102412.81;6200373;28;20053;-73
2021/06/13 13:28:50;;;;;;;7.03;2.78;;;;;;;22.74;42.28;102402.88;6199992;28;20188;-74
2021/06/13 13:32:00;;;;;;;8.48;2.55;;;;;;;22.75;43.06;102402.75;6199879;28;20057;-75
2021/06/13 13:35:01;;;;;;;8.95;2.85;;;;;;;23.39;41.34;102412.03;6199915;28;20043;-72
2021/06/13 13:38:04;;;;;;;7.55;2.90;;;;;;;23.07;39.75;102402.06;6199620;28;20420;-74
2021/06/13 13:41:08;;;;;;;5.30;2.53;;;;;;;22.86;40.41;102407.28;6199408;28;20398;-74
2021/06/13 13:44:12;;;;;;;9.18;2.78;;;;;;;22.57;40.51;102408.69;6199545;28;20516;-72
2021/06/13 13:47:16;;;;;;;10.90;3.28;;;;;;;22.18;40.14;102403.63;6199785;28;20061;-75
2021/06/13 13:50:17;;;;;;;7.05;2.50;;;;;;;21.95;43.70;102401.81;6184111;28;20078;-72
2021/06/13 13:53:22;;;;;;;4.97;2.90;;;;;;;22.73;43.03;102403.88;6173925;28;20047;-72
2021/06/13 13:56:25;;;;;;;10.20;3.17;;;;;;;23.31;38.87;102395.72;6173929;28;20043;-74
2021/06/13 13:59:28;;;;;;;5.55;2.85;;;;;;;22.74;39.31;102400.22;6174125;28;20055;-75
2021/06/13 14:02:30;;;;;;;9.68;3.50;;;;;;;22.71;42.20;102398.63;6174668;28;20062;-72
2021/06/13 14:05:31;;;;;;;6.68;3.38;;;;;;;22.92;42.95;102388.06;6163312;28;20054;-75
2021/06/13 14:08:40;;;;;;;8.93;3.03;;;;;;;23.21;42.74;102387.53;6173186;28;20054;-74
2021/06/13 14:11:42;;;;;;;11.33;3.20;;;;;;;22.93;41.92;102394.28;6171146;28;20471;-73